sensor_id;sensor_type;location;lat;lon;timestamp;P1;durP1;ratioP1;P2;durP2;ratioP2
75169;SDS011;63749;49.186;9.222;2023-06-14T00:02:05;9.20;;;5.27;;
75169;SDS011;63749;49.186;9.222;2023-06-14T00:04:33;7.43;;;5.10;;
75169;SDS011;63749;49.186;9.222;2023-06-14T00:06:59;8.73;;;4.90;;
75169;SDS011;63749;49.186;9.222;2023-06-14T00:09:25;10.65;;;5.00;;
75169;SDS011;63749;49.186;9.222;2023-06-14T00:11:50;6.97;;;5.00;;
75169;SDS011;63749;49.186;9.222;2023-06-14T00:14:15;9.83;;;5.00;;
75169;SDS011;63749;49.186;9.222;2023-06-14T00:16:41;8.20;;;5.30;;
75169;SDS011;63749;49.186;9.222;2023-06-14T00:19:07;8.18;;;5.40;;
75169;SDS011;63749;49.186;9.222;2023-06-14T00:21:35;10.00;;;5.63;;
75169;SDS011;63749;49.186;9.222;2023-06-14T00:24:01;7.00;;;5.60;;
75169;SDS011;63749;49.186;9.222;2023-06-14T00:26:27;12.00;;;5.70;;
75169;SDS011;63749;49.186;9.222;2023-06-14T00:28:53;8.27;;;5.80;;
75169;SDS011;63749;49.186;9.222;2023-06-14T00:31:19;7.53;;;5.40;;
75169;SDS011;63749;49.186;9.222;2023-06-14T00:33:45;11.10;;;6.03;;
75169;SDS011;63749;49.186;9.222;2023-06-14T00:36:10;9.75;;;6.00;;
75169;SDS011;63749;49.186;9.222;2023-06-14T00:38:36;8.83;;;5.70;;
75169;SDS011;63749;49.186;9.222;2023-06-14T00:41:01;10.53;;;6.10;;
75169;SDS011;63749;49.186;9.222;2023-06-14T00:43:26;10.43;;;6.20;;
75169;SDS011;63749;49.186;9.222;2023-06-14T00:45:52;9.63;;;6.40;;
75169;SDS011;63749;49.186;9.222;2023-06-14T00:48:17;10.38;;;6.72;;
75169;SDS011;63749;49.186;9.222;2023-06-14T00:50:43;9.83;;;6.77;;
75169;SDS011;63749;49.186;9.222;2023-06-14T00:53:11;10.43;;;6.15;;
75169;SDS011;63749;49.186;9.222;2023-06-14T00:55:37;10.23;;;5.60;;
75169;SDS011;63749;49.186;9.222;2023-06-14T00:58:02;15.67;;;5.50;;
75169;SDS011;63749;49.186;9.222;2023-06-14T01:00:28;9.90;;;5.50;;
75169;SDS011;63749;49.186;9.222;2023-06-14T01:02:54;9.65;;;5.45;;
75169;SDS011;63749;49.186;9.222;2023-06-14T01:05:20;8.27;;;5.60;;
75169;SDS011;63749;49.186;9.222;2023-06-14T01:13:53;9.55;;;5.00;;
75169;SDS011;63749;49.186;9.222;2023-06-14T01:16:19;8.15;;;4.90;;
75169;SDS011;63749;49.186;9.222;2023-06-14T01:18:45;9.27;;;4.73;;
75169;SDS011;63749;49.186;9.222;2023-06-14T01:21:22;8.73;;;5.05;;
75169;SDS011;63749;49.186;9.222;2023-06-14T01:23:49;10.10;;;4.90;;
75169;SDS011;63749;49.186;9.222;2023-06-14T01:26:24;7.90;;;4.90;;
75169;SDS011;63749;49.186;9.222;2023-06-14T01:28:51;9.82;;;4.95;;
75169;SDS011;63749;49.186;9.222;2023-06-14T01:31:23;8.48;;;5.18;;
75169;SDS011;63749;49.186;9.222;2023-06-14T01:33:49;9.55;;;5.20;;
75169;SDS011;63749;49.186;9.222;2023-06-14T01:36:16;7.10;;;5.13;;
75169;SDS011;63749;49.186;9.222;2023-06-14T01:38:44;8.80;;;5.05;;
75169;SDS011;63749;49.186;9.222;2023-06-14T01:41:11;8.40;;;5.50;;
75169;SDS011;63749;49.186;9.222;2023-06-14T01:43:36;8.27;;;5.05;;
75169;SDS011;63749;49.186;9.222;2023-06-14T01:46:03;7.87;;;5.60;;
75169;SDS011;63749;49.186;9.222;2023-06-14T01:48:30;11.65;;;6.03;;
75169;SDS011;63749;49.186;9.222;2023-06-14T01:50:56;12.13;;;5.90;;
75169;SDS011;63749;49.186;9.222;2023-06-14T01:53:22;9.57;;;5.30;;
75169;SDS011;63749;49.186;9.222;2023-06-14T01:55:47;8.63;;;5.40;;
75169;SDS011;63749;49.186;9.222;2023-06-14T01:58:13;8.20;;;5.53;;
75169;SDS011;63749;49.186;9.222;2023-06-14T02:00:39;10.70;;;5.45;;
75169;SDS011;63749;49.186;9.222;2023-06-14T02:03:05;10.93;;;5.40;;
75169;SDS011;63749;49.186;9.222;2023-06-14T02:05:30;9.30;;;5.43;;
75169;SDS011;63749;49.186;9.222;2023-06-14T02:07:56;9.50;;;5.50;;
75169;SDS011;63749;49.186;9.222;2023-06-14T02:10:21;9.83;;;5.50;;
75169;SDS011;63749;49.186;9.222;2023-06-14T02:12:47;9.13;;;5.50;;
75169;SDS011;63749;49.186;9.222;2023-06-14T02:15:13;10.10;;;5.40;;
75169;SDS011;63749;49.186;9.222;2023-06-14T02:17:42;9.05;;;5.43;;
75169;SDS011;63749;49.186;9.222;2023-06-14T02:20:08;8.63;;;5.60;;
75169;SDS011;63749;49.186;9.222;2023-06-14T02:22:34;10.98;;;5.72;;
75169;SDS011;63749;49.186;9.222;2023-06-14T02:25:00;10.37;;;6.00;;
75169;SDS011;63749;49.186;9.222;2023-06-14T02:27:25;9.30;;;5.57;;
75169;SDS011;63749;49.186;9.222;2023-06-14T02:29:51;8.10;;;5.50;;
75169;SDS011;63749;49.186;9.222;2023-06-14T02:32:16;8.40;;;5.77;;
75169;SDS011;63749;49.186;9.222;2023-06-14T02:34:41;7.53;;;5.67;;
75169;SDS011;63749;49.186;9.222;2023-06-14T02:37:07;10.33;;;5.80;;
75169;SDS011;63749;49.186;9.222;2023-06-14T02:39:32;9.90;;;5.80;;
75169;SDS011;63749;49.186;9.222;2023-06-14T02:41:57;10.23;;;6.20;;
75169;SDS011;63749;49.186;9.222;2023-06-14T02:44:26;7.27;;;5.43;;
75169;SDS011;63749;49.186;9.222;2023-06-14T02:46:53;9.85;;;6.10;;
75169;SDS011;63749;49.186;9.222;2023-06-14T02:49:19;8.88;;;5.93;;
75169;SDS011;63749;49.186;9.222;2023-06-14T02:51:44;8.03;;;5.70;;
75169;SDS011;63749;49.186;9.222;2023-06-14T02:54:10;8.57;;;5.90;;
75169;SDS011;63749;49.186;9.222;2023-06-14T02:56:35;10.98;;;5.90;;
75169;SDS011;63749;49.186;9.222;2023-06-14T02:59:01;8.47;;;6.10;;
75169;SDS011;63749;49.186;9.222;2023-06-14T03:01:27;8.98;;;6.13;;
75169;SDS011;63749;49.186;9.222;2023-06-14T03:03:58;9.70;;;5.93;;
75169;SDS011;63749;49.186;9.222;2023-06-14T03:06:24;10.57;;;6.03;;
75169;SDS011;63749;49.186;9.222;2023-06-14T03:08:50;9.13;;;6.07;;
75169;SDS011;63749;49.186;9.222;2023-06-14T03:11:15;8.88;;;6.18;;
75169;SDS011;63749;49.186;9.222;2023-06-14T03:13:42;8.18;;;6.10;;
75169;SDS011;63749;49.186;9.222;2023-06-14T03:16:08;9.00;;;6.13;;
75169;SDS011;63749;49.186;9.222;2023-06-14T03:18:34;11.30;;;6.30;;
75169;SDS011;63749;49.186;9.222;2023-06-14T03:21:01;12.52;;;6.30;;
75169;SDS011;63749;49.186;9.222;2023-06-14T03:23:27;9.95;;;6.43;;
75169;SDS011;63749;49.186;9.222;2023-06-14T03:25:53;11.37;;;6.17;;
75169;SDS011;63749;49.186;9.222;2023-06-14T03:28:18;9.90;;;6.37;;
75169;SDS011;63749;49.186;9.222;2023-06-14T03:30:43;8.90;;;6.10;;
75169;SDS011;63749;49.186;9.222;2023-06-14T03:33:09;9.60;;;6.17;;
75169;SDS011;63749;49.186;9.222;2023-06-14T03:35:34;9.30;;;5.90;;
75169;SDS011;63749;49.186;9.222;2023-06-14T03:38:00;9.77;;;6.43;;
75169;SDS011;63749;49.186;9.222;2023-06-14T03:40:25;12.18;;;6.38;;
75169;SDS011;63749;49.186;9.222;2023-06-14T03:42:53;10.07;;;6.27;;
75169;SDS011;63749;49.186;9.222;2023-06-14T03:45:19;11.40;;;5.80;;
75169;SDS011;63749;49.186;9.222;2023-06-14T03:47:44;10.70;;;6.40;;
75169;SDS011;63749;49.186;9.222;2023-06-14T03:50:10;9.80;;;6.20;;
75169;SDS011;63749;49.186;9.222;2023-06-14T03:52:36;10.98;;;6.88;;
75169;SDS011;63749;49.186;9.222;2023-06-14T03:55:01;10.20;;;6.27;;
75169;SDS011;63749;49.186;9.222;2023-06-14T03:57:27;9.15;;;6.65;;
75169;SDS011;63749;49.186;9.222;2023-06-14T03:59:54;10.50;;;6.30;;
75169;SDS011;63749;49.186;9.222;2023-06-14T04:02:19;12.73;;;6.47;;
75169;SDS011;63749;49.186;9.222;2023-06-14T04:04:45;8.47;;;6.07;;
75169;SDS011;63749;49.186;9.222;2023-06-14T04:07:11;10.50;;;6.57;;
75169;SDS011;63749;49.186;9.222;2023-06-14T04:09:37;9.95;;;6.40;;
75169;SDS011;63749;49.186;9.222;2023-06-14T04:12:05;8.93;;;6.20;;
75169;SDS011;63749;49.186;9.222;2023-06-14T04:14:30;12.82;;;6.53;;
75169;SDS011;63749;49.186;9.222;2023-06-14T04:16:57;9.02;;;6.30;;
75169;SDS011;63749;49.186;9.222;2023-06-14T04:19:23;10.57;;;5.87;;
75169;SDS011;63749;49.186;9.222;2023-06-14T04:21:48;9.52;;;5.75;;
75169;SDS011;63749;49.186;9.222;2023-06-14T04:24:14;10.07;;;6.20;;
75169;SDS011;63749;49.186;9.222;2023-06-14T04:26:40;10.20;;;6.70;;
75169;SDS011;63749;49.186;9.222;2023-06-14T04:29:06;12.23;;;6.45;;
75169;SDS011;63749;49.186;9.222;2023-06-14T04:31:32;12.50;;;6.67;;
75169;SDS011;63749;49.186;9.222;2023-06-14T04:34:02;9.85;;;6.70;;
75169;SDS011;63749;49.186;9.222;2023-06-14T04:36:31;14.63;;;6.85;;
75169;SDS011;63749;49.186;9.222;2023-06-14T04:39:00;11.13;;;6.70;;
75169;SDS011;63749;49.186;9.222;2023-06-14T04:41:28;12.40;;;6.60;;
75169;SDS011;63749;49.186;9.222;2023-06-14T04:43:56;8.43;;;6.03;;
75169;SDS011;63749;49.186;9.222;2023-06-14T04:46:23;11.27;;;6.40;;
75169;SDS011;63749;49.186;9.222;2023-06-14T04:48:48;9.17;;;6.17;;
75169;SDS011;63749;49.186;9.222;2023-06-14T04:51:15;11.32;;;6.50;;
75169;SDS011;63749;49.186;9.222;2023-06-14T04:53:41;12.77;;;6.82;;
75169;SDS011;63749;49.186;9.222;2023-06-14T04:56:06;10.50;;;6.57;;
75169;SDS011;63749;49.186;9.222;2023-06-14T04:58:32;10.70;;;6.80;;
75169;SDS011;63749;49.186;9.222;2023-06-14T05:00:57;8.13;;;6.10;;
75169;SDS011;63749;49.186;9.222;2023-06-14T05:03:24;10.90;;;6.57;;
75169;SDS011;63749;49.186;9.222;2023-06-14T05:05:51;8.90;;;6.18;;
75169;SDS011;63749;49.186;9.222;2023-06-14T05:08:18;9.18;;;6.57;;
75169;SDS011;63749;49.186;9.222;2023-06-14T05:10:48;8.63;;;6.50;;
75169;SDS011;63749;49.186;9.222;2023-06-14T05:13:14;9.67;;;6.30;;
75169;SDS011;63749;49.186;9.222;2023-06-14T05:15:39;10.03;;;6.40;;
75169;SDS011;63749;49.186;9.222;2023-06-14T05:18:04;9.67;;;6.53;;
75169;SDS011;63749;49.186;9.222;2023-06-14T05:20:30;16.02;;;6.60;;
75169;SDS011;63749;49.186;9.222;2023-06-14T05:22:55;9.33;;;6.23;;
75169;SDS011;63749;49.186;9.222;2023-06-14T05:25:22;9.90;;;6.55;;
75169;SDS011;63749;49.186;9.222;2023-06-14T05:27:48;10.70;;;6.33;;
75169;SDS011;63749;49.186;9.222;2023-06-14T05:30:14;9.43;;;6.20;;
75169;SDS011;63749;49.186;9.222;2023-06-14T05:32:40;10.40;;;6.80;;
75169;SDS011;63749;49.186;9.222;2023-06-14T05:35:05;10.88;;;6.22;;
75169;SDS011;63749;49.186;9.222;2023-06-14T05:37:31;10.33;;;6.40;;
75169;SDS011;63749;49.186;9.222;2023-06-14T05:39:57;8.50;;;6.35;;
75169;SDS011;63749;49.186;9.222;2023-06-14T05:42:22;8.80;;;6.00;;
75169;SDS011;63749;49.186;9.222;2023-06-14T05:44:47;10.70;;;6.40;;
75169;SDS011;63749;49.186;9.222;2023-06-14T05:47:13;9.30;;;6.07;;
75169;SDS011;63749;49.186;9.222;2023-06-14T05:49:39;12.10;;;6.33;;
75169;SDS011;63749;49.186;9.222;2023-06-14T05:52:04;11.00;;;6.50;;
75169;SDS011;63749;49.186;9.222;2023-06-14T05:54:30;9.02;;;5.97;;
75169;SDS011;63749;49.186;9.222;2023-06-14T05:56:56;10.07;;;6.50;;
75169;SDS011;63749;49.186;9.222;2023-06-14T05:59:26;9.75;;;6.25;;
75169;SDS011;63749;49.186;9.222;2023-06-14T06:01:51;10.60;;;6.40;;
75169;SDS011;63749;49.186;9.222;2023-06-14T06:04:16;12.20;;;6.10;;
75169;SDS011;63749;49.186;9.222;2023-06-14T06:06:42;9.43;;;6.40;;
75169;SDS011;63749;49.186;9.222;2023-06-14T06:09:08;11.67;;;6.37;;
75169;SDS011;63749;49.186;9.222;2023-06-14T06:11:33;12.82;;;6.18;;
75169;SDS011;63749;49.186;9.222;2023-06-14T06:13:59;7.80;;;6.10;;
75169;SDS011;63749;49.186;9.222;2023-06-14T06:16:24;10.03;;;6.03;;
75169;SDS011;63749;49.186;9.222;2023-06-14T06:18:49;9.23;;;6.10;;
75169;SDS011;63749;49.186;9.222;2023-06-14T06:21:15;7.87;;;6.10;;
75169;SDS011;63749;49.186;9.222;2023-06-14T06:23:40;8.95;;;6.50;;
75169;SDS011;63749;49.186;9.222;2023-06-14T06:26:06;9.73;;;5.80;;
75169;SDS011;63749;49.186;9.222;2023-06-14T06:28:31;11.43;;;6.53;;
75169;SDS011;63749;49.186;9.222;2023-06-14T06:30:56;15.03;;;6.00;;
75169;SDS011;63749;49.186;9.222;2023-06-14T06:33:22;10.63;;;5.97;;
75169;SDS011;63749;49.186;9.222;2023-06-14T06:35:47;9.13;;;6.37;;
75169;SDS011;63749;49.186;9.222;2023-06-14T06:38:13;10.67;;;6.33;;
75169;SDS011;63749;49.186;9.222;2023-06-14T06:40:38;8.50;;;6.30;;
75169;SDS011;63749;49.186;9.222;2023-06-14T06:43:03;10.98;;;6.38;;
75169;SDS011;63749;49.186;9.222;2023-06-14T06:45:29;9.30;;;6.07;;
75169;SDS011;63749;49.186;9.222;2023-06-14T06:47:55;7.78;;;5.80;;
75169;SDS011;63749;49.186;9.222;2023-06-14T06:50:21;10.67;;;6.20;;
75169;SDS011;63749;49.186;9.222;2023-06-14T06:52:50;8.55;;;6.10;;
75169;SDS011;63749;49.186;9.222;2023-06-14T06:55:16;9.13;;;6.00;;
75169;SDS011;63749;49.186;9.222;2023-06-14T06:57:41;8.02;;;5.90;;
75169;SDS011;63749;49.186;9.222;2023-06-14T07:00:07;9.83;;;5.93;;
75169;SDS011;63749;49.186;9.222;2023-06-14T07:02:34;13.07;;;6.10;;
75169;SDS011;63749;49.186;9.222;2023-06-14T07:04:59;8.33;;;5.70;;
75169;SDS011;63749;49.186;9.222;2023-06-14T07:07:25;7.13;;;5.60;;
75169;SDS011;63749;49.186;9.222;2023-06-14T07:09:50;7.30;;;5.53;;
75169;SDS011;63749;49.186;9.222;2023-06-14T07:12:16;7.57;;;5.32;;
75169;SDS011;63749;49.186;9.222;2023-06-14T07:14:41;7.27;;;5.33;;
75169;SDS011;63749;49.186;9.222;2023-06-14T07:17:06;11.73;;;5.77;;
75169;SDS011;63749;49.186;9.222;2023-06-14T07:19:32;7.57;;;5.30;;
75169;SDS011;63749;49.186;9.222;2023-06-14T07:21:58;13.13;;;5.78;;
75169;SDS011;63749;49.186;9.222;2023-06-14T07:24:23;13.80;;;5.67;;
75169;SDS011;63749;49.186;9.222;2023-06-14T07:26:49;7.25;;;5.47;;
75169;SDS011;63749;49.186;9.222;2023-06-14T07:29:14;11.07;;;5.70;;
75169;SDS011;63749;49.186;9.222;2023-06-14T07:31:41;12.95;;;6.20;;
75169;SDS011;63749;49.186;9.222;2023-06-14T07:34:06;8.87;;;5.77;;
75169;SDS011;63749;49.186;9.222;2023-06-14T07:36:32;10.23;;;5.30;;
75169;SDS011;63749;49.186;9.222;2023-06-14T07:38:57;9.33;;;5.23;;
75169;SDS011;63749;49.186;9.222;2023-06-14T07:41:23;7.72;;;5.20;;
75169;SDS011;63749;49.186;9.222;2023-06-14T07:43:48;9.00;;;5.23;;
75169;SDS011;63749;49.186;9.222;2023-06-14T07:46:14;13.30;;;5.83;;
75169;SDS011;63749;49.186;9.222;2023-06-14T07:48:39;9.20;;;5.40;;
75169;SDS011;63749;49.186;9.222;2023-06-14T07:51:05;8.83;;;5.50;;
75169;SDS011;63749;49.186;9.222;2023-06-14T07:53:30;8.93;;;5.70;;
75169;SDS011;63749;49.186;9.222;2023-06-14T07:55:56;10.90;;;5.70;;
75169;SDS011;63749;49.186;9.222;2023-06-14T07:58:21;10.15;;;5.60;;
75169;SDS011;63749;49.186;9.222;2023-06-14T08:00:47;8.93;;;5.40;;
75169;SDS011;63749;49.186;9.222;2023-06-14T08:03:12;7.63;;;5.20;;
75169;SDS011;63749;49.186;9.222;2023-06-14T08:05:37;9.88;;;5.30;;
75169;SDS011;63749;49.186;9.222;2023-06-14T08:08:03;6.47;;;5.10;;
75169;SDS011;63749;49.186;9.222;2023-06-14T08:10:28;8.60;;;5.33;;
75169;SDS011;63749;49.186;9.222;2023-06-14T08:12:54;8.00;;;5.10;;
75169;SDS011;63749;49.186;9.222;2023-06-14T08:15:19;11.43;;;5.17;;
75169;SDS011;63749;49.186;9.222;2023-06-14T08:17:45;10.23;;;5.00;;
75169;SDS011;63749;49.186;9.222;2023-06-14T08:20:11;7.57;;;5.10;;
75169;SDS011;63749;49.186;9.222;2023-06-14T08:22:38;7.13;;;5.40;;
75169;SDS011;63749;49.186;9.222;2023-06-14T08:25:04;9.57;;;5.70;;
75169;SDS011;63749;49.186;9.222;2023-06-14T08:27:30;6.88;;;5.18;;
75169;SDS011;63749;49.186;9.222;2023-06-14T08:29:55;8.33;;;5.50;;
75169;SDS011;63749;49.186;9.222;2023-06-14T08:32:21;9.93;;;5.32;;
75169;SDS011;63749;49.186;9.222;2023-06-14T08:34:47;7.93;;;4.90;;
75169;SDS011;63749;49.186;9.222;2023-06-14T08:37:13;9.37;;;5.43;;
75169;SDS011;63749;49.186;9.222;2023-06-14T08:39:38;10.60;;;5.20;;
75169;SDS011;63749;49.186;9.222;2023-06-14T08:42:04;9.97;;;5.90;;
75169;SDS011;63749;49.186;9.222;2023-06-14T08:44:32;9.90;;;5.80;;
75169;SDS011;63749;49.186;9.222;2023-06-14T08:46:58;7.78;;;5.00;;
75169;SDS011;63749;49.186;9.222;2023-06-14T08:49:24;6.97;;;4.80;;
75169;SDS011;63749;49.186;9.222;2023-06-14T08:51:53;8.13;;;5.20;;
75169;SDS011;63749;49.186;9.222;2023-06-14T08:54:28;9.57;;;5.35;;
75169;SDS011;63749;49.186;9.222;2023-06-14T08:57:00;7.45;;;5.25;;
75169;SDS011;63749;49.186;9.222;2023-06-14T08:59:27;8.43;;;5.40;;
75169;SDS011;63749;49.186;9.222;2023-06-14T09:01:53;10.00;;;5.07;;
75169;SDS011;63749;49.186;9.222;2023-06-14T09:04:20;6.78;;;5.30;;
75169;SDS011;63749;49.186;9.222;2023-06-14T09:06:46;7.63;;;4.93;;
75169;SDS011;63749;49.186;9.222;2023-06-14T09:09:17;9.00;;;5.47;;
75169;SDS011;63749;49.186;9.222;2023-06-14T09:11:43;8.93;;;5.43;;
75169;SDS011;63749;49.186;9.222;2023-06-14T09:14:09;9.38;;;5.07;;
75169;SDS011;63749;49.186;9.222;2023-06-14T09:16:34;6.27;;;4.80;;
75169;SDS011;63749;49.186;9.222;2023-06-14T09:19:00;11.73;;;5.28;;
75169;SDS011;63749;49.186;9.222;2023-06-14T09:21:25;6.33;;;5.00;;
75169;SDS011;63749;49.186;9.222;2023-06-14T09:23:51;6.53;;;4.93;;
75169;SDS011;63749;49.186;9.222;2023-06-14T09:26:17;9.80;;;5.03;;
75169;SDS011;63749;49.186;9.222;2023-06-14T09:28:50;5.93;;;5.13;;
75169;SDS011;63749;49.186;9.222;2023-06-14T09:31:19;8.67;;;5.27;;
75169;SDS011;63749;49.186;9.222;2023-06-14T09:33:46;7.28;;;5.00;;
75169;SDS011;63749;49.186;9.222;2023-06-14T09:36:22;6.40;;;5.03;;
75169;SDS011;63749;49.186;9.222;2023-06-14T09:38:56;8.40;;;4.70;;
75169;SDS011;63749;49.186;9.222;2023-06-14T09:41:32;6.47;;;4.90;;
75169;SDS011;63749;49.186;9.222;2023-06-14T09:44:01;8.97;;;4.87;;
75169;SDS011;63749;49.186;9.222;2023-06-14T09:46:28;6.50;;;4.47;;
75169;SDS011;63749;49.186;9.222;2023-06-14T09:48:58;7.57;;;5.20;;
75169;SDS011;63749;49.186;9.222;2023-06-14T09:51:24;6.40;;;4.53;;
75169;SDS011;63749;49.186;9.222;2023-06-14T09:53:50;5.93;;;4.80;;
75169;SDS011;63749;49.186;9.222;2023-06-14T09:56:23;9.97;;;5.00;;
75169;SDS011;63749;49.186;9.222;2023-06-14T09:58:58;6.57;;;5.00;;
75169;SDS011;63749;49.186;9.222;2023-06-14T10:01:25;9.00;;;5.25;;
75169;SDS011;63749;49.186;9.222;2023-06-14T10:04:06;9.80;;;4.65;;
75169;SDS011;63749;49.186;9.222;2023-06-14T10:06:35;5.55;;;4.80;;
75169;SDS011;63749;49.186;9.222;2023-06-14T10:09:03;9.57;;;4.70;;
75169;SDS011;63749;49.186;9.222;2023-06-14T10:11:30;7.10;;;4.70;;
75169;SDS011;63749;49.186;9.222;2023-06-14T10:13:56;7.35;;;5.00;;
75169;SDS011;63749;49.186;9.222;2023-06-14T10:19:17;6.17;;;4.10;;
75169;SDS011;63749;49.186;9.222;2023-06-14T10:24:15;6.88;;;4.25;;
75169;SDS011;63749;49.186;9.222;2023-06-14T10:26:50;5.13;;;3.75;;
75169;SDS011;63749;49.186;9.222;2023-06-14T10:29:17;8.35;;;4.68;;
75169;SDS011;63749;49.186;9.222;2023-06-14T10:31:43;11.47;;;4.60;;
75169;SDS011;63749;49.186;9.222;2023-06-14T10:34:22;7.55;;;4.20;;
75169;SDS011;63749;49.186;9.222;2023-06-14T10:39:30;8.30;;;4.33;;
75169;SDS011;63749;49.186;9.222;2023-06-14T10:41:56;6.10;;;4.10;;
75169;SDS011;63749;49.186;9.222;2023-06-14T10:46:54;6.60;;;4.57;;
75169;SDS011;63749;49.186;9.222;2023-06-14T10:52:27;6.07;;;4.35;;
75169;SDS011;63749;49.186;9.222;2023-06-14T10:55:00;8.77;;;4.67;;
75169;SDS011;63749;49.186;9.222;2023-06-14T10:57:29;7.47;;;4.38;;
75169;SDS011;63749;49.186;9.222;2023-06-14T10:59:57;9.05;;;4.88;;
75169;SDS011;63749;49.186;9.222;2023-06-14T11:05:16;5.35;;;4.47;;
75169;SDS011;63749;49.186;9.222;2023-06-14T11:10:43;7.20;;;4.45;;
75169;SDS011;63749;49.186;9.222;2023-06-14T11:13:10;6.53;;;4.30;;
75169;SDS011;63749;49.186;9.222;2023-06-14T11:15:36;6.75;;;4.65;;
75169;SDS011;63749;49.186;9.222;2023-06-14T11:18:03;8.70;;;4.50;;
75169;SDS011;63749;49.186;9.222;2023-06-14T11:20:31;10.02;;;4.60;;
75169;SDS011;63749;49.186;9.222;2023-06-14T11:22:58;7.55;;;4.45;;
75169;SDS011;63749;49.186;9.222;2023-06-14T11:25:24;6.10;;;4.53;;
75169;SDS011;63749;49.186;9.222;2023-06-14T11:27:51;7.07;;;4.50;;
75169;SDS011;63749;49.186;9.222;2023-06-14T11:30:17;9.77;;;4.80;;
75169;SDS011;63749;49.186;9.222;2023-06-14T11:32:49;5.93;;;4.43;;
75169;SDS011;63749;49.186;9.222;2023-06-14T11:35:17;8.32;;;4.38;;
75169;SDS011;63749;49.186;9.222;2023-06-14T11:37:43;8.60;;;5.05;;
75169;SDS011;63749;49.186;9.222;2023-06-14T11:40:12;5.00;;;4.50;;
75169;SDS011;63749;49.186;9.222;2023-06-14T11:42:39;6.50;;;4.32;;
75169;SDS011;63749;49.186;9.222;2023-06-14T11:45:09;6.27;;;4.60;;
75169;SDS011;63749;49.186;9.222;2023-06-14T11:47:36;6.35;;;4.40;;
75169;SDS011;63749;49.186;9.222;2023-06-14T11:50:04;7.10;;;4.53;;
75169;SDS011;63749;49.186;9.222;2023-06-14T11:52:31;8.05;;;4.60;;
75169;SDS011;63749;49.186;9.222;2023-06-14T11:54:57;5.30;;;4.43;;
75169;SDS011;63749;49.186;9.222;2023-06-14T11:57:24;7.47;;;4.50;;
75169;SDS011;63749;49.186;9.222;2023-06-14T11:59:50;6.13;;;4.43;;
75169;SDS011;63749;49.186;9.222;2023-06-14T12:02:16;7.35;;;4.47;;
75169;SDS011;63749;49.186;9.222;2023-06-14T12:04:43;7.30;;;4.70;;
75169;SDS011;63749;49.186;9.222;2023-06-14T12:07:12;7.78;;;4.50;;
75169;SDS011;63749;49.186;9.222;2023-06-14T12:12:23;8.38;;;4.60;;
75169;SDS011;63749;49.186;9.222;2023-06-14T12:14:52;8.85;;;4.70;;
75169;SDS011;63749;49.186;9.222;2023-06-14T12:17:22;7.57;;;4.70;;
75169;SDS011;63749;49.186;9.222;2023-06-14T12:19:48;7.50;;;4.68;;
75169;SDS011;63749;49.186;9.222;2023-06-14T12:22:15;10.17;;;5.03;;
75169;SDS011;63749;49.186;9.222;2023-06-14T12:24:44;6.15;;;4.20;;
75169;SDS011;63749;49.186;9.222;2023-06-14T12:27:11;7.22;;;4.90;;
75169;SDS011;63749;49.186;9.222;2023-06-14T12:29:41;8.20;;;5.38;;
75169;SDS011;63749;49.186;9.222;2023-06-14T12:32:10;6.10;;;4.88;;
75169;SDS011;63749;49.186;9.222;2023-06-14T12:34:35;10.50;;;5.70;;
75169;SDS011;63749;49.186;9.222;2023-06-14T12:37:01;7.03;;;5.30;;
75169;SDS011;63749;49.186;9.222;2023-06-14T12:39:29;7.93;;;5.30;;
75169;SDS011;63749;49.186;9.222;2023-06-14T12:41:56;6.13;;;5.10;;
75169;SDS011;63749;49.186;9.222;2023-06-14T12:44:22;6.63;;;5.40;;
75169;SDS011;63749;49.186;9.222;2023-06-14T12:46:47;5.90;;;5.30;;
75169;SDS011;63749;49.186;9.222;2023-06-14T12:49:13;7.17;;;4.63;;
75169;SDS011;63749;49.186;9.222;2023-06-14T12:51:38;6.38;;;4.25;;
75169;SDS011;63749;49.186;9.222;2023-06-14T12:54:04;10.07;;;5.60;;
75169;SDS011;63749;49.186;9.222;2023-06-14T12:56:30;7.57;;;5.28;;
75169;SDS011;63749;49.186;9.222;2023-06-14T12:58:55;5.27;;;4.50;;
75169;SDS011;63749;49.186;9.222;2023-06-14T13:01:21;8.03;;;4.33;;
75169;SDS011;63749;49.186;9.222;2023-06-14T13:03:46;8.97;;;4.70;;
75169;SDS011;63749;49.186;9.222;2023-06-14T13:06:12;7.50;;;4.90;;
75169;SDS011;63749;49.186;9.222;2023-06-14T13:08:38;9.60;;;4.80;;
75169;SDS011;63749;49.186;9.222;2023-06-14T13:11:03;6.77;;;4.23;;
75169;SDS011;63749;49.186;9.222;2023-06-14T13:13:29;8.20;;;4.80;;
75169;SDS011;63749;49.186;9.222;2023-06-14T13:15:54;6.60;;;4.80;;
75169;SDS011;63749;49.186;9.222;2023-06-14T13:18:19;7.93;;;4.87;;
75169;SDS011;63749;49.186;9.222;2023-06-14T13:20:45;7.93;;;4.80;;
75169;SDS011;63749;49.186;9.222;2023-06-14T13:23:11;8.75;;;4.50;;
75169;SDS011;63749;49.186;9.222;2023-06-14T13:25:37;5.43;;;4.40;;
75169;SDS011;63749;49.186;9.222;2023-06-14T13:28:03;8.00;;;4.93;;
75169;SDS011;63749;49.186;9.222;2023-06-14T13:30:30;7.97;;;4.70;;
75169;SDS011;63749;49.186;9.222;2023-06-14T13:32:56;7.18;;;4.63;;
75169;SDS011;63749;49.186;9.222;2023-06-14T13:35:22;8.03;;;4.70;;
75169;SDS011;63749;49.186;9.222;2023-06-14T13:37:48;11.20;;;4.60;;
75169;SDS011;63749;49.186;9.222;2023-06-14T13:40:13;6.53;;;4.50;;
75169;SDS011;63749;49.186;9.222;2023-06-14T13:42:39;8.60;;;4.60;;
75169;SDS011;63749;49.186;9.222;2023-06-14T13:45:05;7.90;;;4.80;;
75169;SDS011;63749;49.186;9.222;2023-06-14T13:47:31;11.25;;;5.88;;
75169;SDS011;63749;49.186;9.222;2023-06-14T13:49:56;9.03;;;6.17;;
75169;SDS011;63749;49.186;9.222;2023-06-14T13:52:22;7.97;;;6.03;;
75169;SDS011;63749;49.186;9.222;2023-06-14T13:54:48;6.73;;;4.67;;
75169;SDS011;63749;49.186;9.222;2023-06-14T13:57:13;7.43;;;5.25;;
75169;SDS011;63749;49.186;9.222;2023-06-14T13:59:40;7.33;;;4.90;;
75169;SDS011;63749;49.186;9.222;2023-06-14T14:02:06;8.88;;;4.50;;
75169;SDS011;63749;49.186;9.222;2023-06-14T14:04:32;8.95;;;4.63;;
75169;SDS011;63749;49.186;9.222;2023-06-14T14:06:58;6.55;;;5.55;;
75169;SDS011;63749;49.186;9.222;2023-06-14T14:09:23;6.33;;;4.60;;
75169;SDS011;63749;49.186;9.222;2023-06-14T14:11:49;7.43;;;5.40;;
75169;SDS011;63749;49.186;9.222;2023-06-14T14:14:14;7.03;;;5.60;;
75169;SDS011;63749;49.186;9.222;2023-06-14T14:16:40;12.00;;;5.83;;
75169;SDS011;63749;49.186;9.222;2023-06-14T14:19:05;8.40;;;5.80;;
75169;SDS011;63749;49.186;9.222;2023-06-14T14:21:31;6.50;;;5.90;;
75169;SDS011;63749;49.186;9.222;2023-06-14T14:23:57;8.37;;;5.60;;
75169;SDS011;63749;49.186;9.222;2023-06-14T14:26:22;6.93;;;5.13;;
75169;SDS011;63749;49.186;9.222;2023-06-14T14:28:48;8.07;;;4.13;;
75169;SDS011;63749;49.186;9.222;2023-06-14T14:31:14;6.50;;;4.13;;
75169;SDS011;63749;49.186;9.222;2023-06-14T14:33:40;6.70;;;4.50;;
75169;SDS011;63749;49.186;9.222;2023-06-14T14:36:05;6.83;;;4.57;;
75169;SDS011;63749;49.186;9.222;2023-06-14T14:38:31;8.18;;;4.68;;
75169;SDS011;63749;49.186;9.222;2023-06-14T14:40:57;6.40;;;4.40;;
75169;SDS011;63749;49.186;9.222;2023-06-14T14:43:22;6.90;;;4.47;;
75169;SDS011;63749;49.186;9.222;2023-06-14T14:45:47;5.60;;;4.40;;
75169;SDS011;63749;49.186;9.222;2023-06-14T14:48:13;5.97;;;4.40;;
75169;SDS011;63749;49.186;9.222;2023-06-14T14:50:38;5.97;;;4.73;;
75169;SDS011;63749;49.186;9.222;2023-06-14T14:53:04;8.55;;;4.75;;
75169;SDS011;63749;49.186;9.222;2023-06-14T14:55:30;8.00;;;5.70;;
75169;SDS011;63749;49.186;9.222;2023-06-14T14:57:57;8.45;;;6.25;;
75169;SDS011;63749;49.186;9.222;2023-06-14T15:00:22;8.53;;;6.10;;
75169;SDS011;63749;49.186;9.222;2023-06-14T15:02:48;7.53;;;5.00;;
75169;SDS011;63749;49.186;9.222;2023-06-14T15:05:13;7.70;;;5.07;;
75169;SDS011;63749;49.186;9.222;2023-06-14T15:07:39;6.50;;;5.70;;